Airfield :
LOGIN :

Register | Disclaimer

   EN    FR    IT 

 










Legend :    VFR   Marginal VFR   IFR   Intensive IFR   Very Intensive IFR
Visi :
Ceiling :
>= 8 km
>= 3000ft
5 to 8 km
1000 to 3000 ft
1500m to 5 km
500 to 1000 ft
800 to 1500m
200 to 500 ft
< 800m
< 200 ft
Symbols :   Thunderstorms  Fog  Heavy snow  Heavy precipitations  Wind > 20 kt
SIGMETs :     Misc.  Thunderstorms  Icing  Turbulence  Mountain Waves  Volcanic Ashes






- Airport Elevation : 57 ft
- IATA code : KRS


ENCN - Kristiansand Kjevik

CURRENT METAR :
  • 050750Z 02014KT 9999 FEW019 BKN028 M03/M06 Q1016

EXPIRED METARs :
  • 050720Z 03015KT 9999 SCT018 BKN033 M03/M06 Q1015
  • 050650Z AUTO 03015KT 9999 R03/P2000N R21///// -FZDZ BKN018/// OVC033/// M03/M06 Q1015
  • 050620Z AUTO 03015KT 9999 R03/P2000N R21///// -FZDZ OVC016/// M03/M06 Q1015
  • 050550Z AUTO 02016G29KT 9999 R03/P2000N R21///// -FZDZ OVC015/// M03/M06 Q1014
  • 050520Z AUTO 03017KT 9999 R03/P2000N R21///// -FZDZ OVC014/// M03/M06 Q1014

TAF TAF ENCN
Valid from the 05 at 06:00 until the 05 at 15:00 UTC


050500Z 0506/0515 03015KT 9999 SCT015 BKN025
TEMPO 0506/0515 04018G28KT 2500 -SN VV012



MET'MAP, your aeronautical weather chart ! - Copyright ORBIFLY December 2007 - Disclaimer

ORBIFLY MET'MAP TEAM :

Programming & Development : Alexandra Zaïnal
Concept & original design : Baudouin d'Aumeries
Assistance for programming : Marc-Olivier Méhu
Technical & hardware support : Manuel Goepfert

Contact : metmap@orbifly.com




SOURCES & CREDITS :

   NOAA